Time;durP1;ratioP1;P1;durP2;ratioP2;P2;SDS_P1;SDS_P2;PMS_P1;PMS_P2;Temp;Humidity;BMP_temperature;BMP_pressure;BME280_temperature;BME280_humidity;BME280_pressure;Samples;Min_cycle;Max_cycle;Signal;HPM_P1;HPM_P2
2022/10/28 00:01:04;;;;;;;23.92;9.38;;;11.10;99.90;;;;;;5056605;28;20033;-88
2022/10/28 00:03:30;;;;;;;27.05;8.20;;;11.10;99.90;;;;;;5080324;28;20050;-88
2022/10/28 00:06:04;;;;;;;26.98;9.77;;;11.00;99.90;;;;;;5071317;28;20021;-88
2022/10/28 00:08:30;;;;;;;25.45;10.40;;;11.10;99.90;;;;;;5063736;28;20028;-88
2022/10/28 00:11:05;;;;;;;22.35;9.40;;;11.30;99.90;;;;;;5073056;28;20074;-88
2022/10/28 00:13:30;;;;;;;26.85;9.27;;;11.40;99.90;;;;;;5057341;28;20032;-88
2022/10/28 00:16:23;;;;;;;20.02;7.72;;;11.60;99.90;;;;;;5091693;28;20046;-88
2022/10/28 00:18:51;;;;;;;18.50;7.55;;;11.90;99.90;;;;;;5096785;28;20427;-89
2022/10/28 00:21:19;;;;;;;22.38;7.40;;;12.20;99.90;;;;;;5086542;28;20024;-88
2022/10/28 00:23:45;;;;;;;27.63;7.15;;;12.40;99.90;;;;;;5079552;28;20029;-88
2022/10/28 00:26:22;;;;;;;15.45;6.72;;;12.50;99.90;;;;;;5081293;28;20027;-88
2022/10/28 00:28:53;;;;;;;16.27;6.65;;;12.50;99.90;;;;;;5083025;28;20461;-88
2022/10/28 00:31:21;;;;;;;28.83;8.10;;;12.70;99.90;;;;;;5064701;28;20081;-88
2022/10/28 00:33:47;;;;;;;16.58;6.00;;;12.70;99.90;;;;;;5057521;28;20124;-88
2022/10/28 00:36:24;;;;;;;15.60;6.55;;;12.80;99.90;;;;;;5082484;28;20020;-88
2022/10/28 00:38:52;;;;;;;8.90;5.65;;;12.70;99.90;;;;;;5059904;28;20025;-88
2022/10/28 00:41:28;;;;;;;19.33;6.88;;;12.70;99.90;;;;;;5082909;28;20016;-89
2022/10/28 00:43:56;;;;;;;20.60;5.65;;;12.60;99.90;;;;;;5068868;28;20443;-88
2022/10/28 00:46:48;;;;;;;15.50;6.50;;;12.60;99.90;;;;;;5067267;28;20036;-88
2022/10/28 00:49:27;;;;;;;14.52;7.28;;;12.60;99.90;;;;;;5071658;28;20063;-88
2022/10/28 00:52:01;;;;;;;19.95;7.35;;;12.70;99.90;;;;;;5086662;28;20031;-88
2022/10/28 00:54:28;;;;;;;14.68;7.65;;;12.90;99.90;;;;;;5063817;28;20033;-88
2022/10/28 00:56:57;;;;;;;16.58;6.75;;;13.10;99.90;;;;;;5073822;28;20025;-88
2022/10/28 00:59:28;;;;;;;15.50;6.93;;;13.30;99.90;;;;;;5079027;28;20025;-88
2022/10/28 01:01:54;;;;;;;16.08;6.15;;;13.40;99.90;;;;;;5102922;28;20024;-88
2022/10/28 01:04:21;;;;;;;16.05;5.88;;;13.30;99.90;;;;;;5083798;28;20052;-89
2022/10/28 01:06:47;;;;;;;16.15;5.68;;;13.20;99.90;;;;;;5061579;28;20403;-88
2022/10/28 01:09:13;;;;;;;10.88;6.07;;;13.00;99.90;;;;;;5068331;28;20036;-88
2022/10/28 01:11:38;;;;;;;14.95;6.22;;;12.90;99.90;;;;;;5081847;28;20025;-89
2022/10/28 01:14:19;;;;;;;26.02;7.15;;;12.80;99.90;;;;;;5089025;28;20104;-88
2022/10/28 01:17:11;;;;;;;18.13;7.07;;;12.70;99.90;;;;;;5069230;28;20029;-88
2022/10/28 01:20:07;;;;;;;42.08;8.07;;;12.60;99.90;;;;;;5057748;28;20452;-88
2022/10/28 01:22:56;;;;;;;22.95;6.60;;;12.40;99.90;;;;;;5081588;28;20036;-88
2022/10/28 01:26:00;;;;;;;17.17;6.57;;;12.50;99.90;;;;;;5067142;28;20031;-88
2022/10/28 01:29:03;;;;;;;18.17;6.57;;;12.50;99.90;;;;;;5069599;28;20111;-88
2022/10/28 01:32:07;;;;;;;16.08;6.10;;;12.40;99.90;;;;;;5063058;28;20028;-88
2022/10/28 01:34:36;;;;;;;16.75;6.93;;;12.30;99.90;;;;;;5048761;28;20031;-89
2022/10/28 01:37:18;;;;;;;15.50;5.97;;;12.20;99.90;;;;;;5077422;28;20497;-88
2022/10/28 01:40:01;;;;;;;17.95;6.47;;;12.10;99.90;;;;;;5079168;28;20062;-89
2022/10/28 01:42:35;;;;;;;14.60;6.82;;;12.00;99.90;;;;;;5083938;28;20460;-88
2022/10/28 01:45:27;;;;;;;11.75;6.38;;;11.90;99.90;;;;;;5076064;28;20036;-89
2022/10/28 01:48:07;;;;;;;12.55;6.47;;;11.90;99.90;;;;;;5067326;28;20036;-88
2022/10/28 01:51:29;;;;;;;16.17;7.90;;;11.90;99.90;;;;;;5074968;28;20033;-88
2022/10/28 01:53:57;;;;;;;24.65;8.32;;;12.00;99.90;;;;;;5054170;28;20055;-88
2022/10/28 01:56:27;;;;;;;24.13;7.75;;;12.00;99.90;;;;;;5088696;28;20070;-88
2022/10/28 01:58:55;;;;;;;22.77;7.53;;;12.00;99.90;;;;;;5083726;28;20024;-88
2022/10/28 02:01:22;;;;;;;22.67;7.10;;;12.10;99.90;;;;;;5078497;28;20423;-88
2022/10/28 02:03:50;;;;;;;15.27;7.18;;;12.20;99.90;;;;;;5086624;28;20016;-89
2022/10/28 02:06:19;;;;;;;23.98;7.30;;;12.30;99.90;;;;;;5055406;28;20376;-89
2022/10/28 02:08:53;;;;;;;16.98;7.15;;;12.40;99.90;;;;;;5086268;28;20395;-88
2022/10/28 02:11:44;;;;;;;12.30;6.50;;;12.40;99.90;;;;;;5077606;28;20037;-89
2022/10/28 02:14:42;;;;;;;12.50;7.63;;;12.40;99.90;;;;;;5075774;28;20119;-88
2022/10/28 02:17:25;;;;;;;17.77;6.20;;;12.30;99.90;;;;;;5064140;28;20031;-88
2022/10/28 02:20:21;;;;;;;14.07;6.47;;;12.30;99.90;;;;;;5080825;28;20506;-88
2022/10/28 02:22:56;;;;;;;15.70;6.70;;;12.20;99.90;;;;;;5046659;28;20032;-88
2022/10/28 02:25:31;;;;;;;16.00;6.25;;;12.10;99.90;;;;;;5082757;28;20027;-88
2022/10/28 02:28:09;;;;;;;22.58;7.32;;;12.00;99.90;;;;;;5072320;28;20035;-88
2022/10/28 02:31:26;;;;;;;15.80;7.05;;;11.90;99.90;;;;;;5086594;28;20032;-89
2022/10/28 02:34:38;;;;;;;20.17;6.28;;;11.90;99.90;;;;;;5054785;28;20055;-88
2022/10/28 02:37:51;;;;;;;19.38;6.32;;;11.90;99.90;;;;;;5060586;28;20387;-88
2022/10/28 02:40:25;;;;;;;15.23;6.25;;;11.80;99.90;;;;;;5075918;28;20475;-88
2022/10/28 02:43:03;;;;;;;16.13;6.70;;;11.90;99.90;;;;;;5087871;28;20043;-89
2022/10/28 02:45:58;;;;;;;12.40;6.15;;;11.90;99.90;;;;;;5060847;28;20054;-88
2022/10/28 02:48:37;;;;;;;15.35;7.07;;;11.90;99.90;;;;;;5056512;28;20029;-88
2022/10/28 02:51:25;;;;;;;21.08;6.90;;;12.00;99.90;;;;;;5067589;28;20034;-88
2022/10/28 02:54:12;;;;;;;17.05;7.35;;;12.00;99.90;;;;;;5081111;28;20055;-88
2022/10/28 02:56:57;;;;;;;17.45;6.72;;;12.10;99.90;;;;;;5071950;28;20024;-88
2022/10/28 02:59:24;;;;;;;15.25;4.97;;;12.20;99.90;;;;;;5073699;28;20528;-88
2022/10/28 03:01:50;;;;;;;14.10;5.78;;;12.30;99.90;;;;;;5074936;28;20372;-88
2022/10/28 03:04:16;;;;;;;18.63;5.80;;;12.80;99.90;;;;;;5063510;28;20016;-88
2022/10/28 03:06:41;;;;;;;12.65;5.32;;;13.00;99.90;;;;;;5063741;28;20024;-88
2022/10/28 03:12:55;;;;;;;19.08;5.82;;;13.10;99.90;;;;;;5067681;28;20423;-89
2022/10/28 03:15:20;;;;;;;25.45;5.97;;;13.00;99.90;;;;;;5062606;28;20032;-88
2022/10/28 03:17:46;;;;;;;10.93;4.88;;;13.00;99.90;;;;;;5075401;28;20078;-88
2022/10/28 03:20:12;;;;;;;16.27;6.38;;;12.90;99.90;;;;;;5076697;28;20020;-89
2022/10/28 03:22:38;;;;;;;18.20;6.07;;;12.90;99.90;;;;;;5071203;28;20035;-88
2022/10/28 03:25:04;;;;;;;14.88;5.85;;;12.90;99.90;;;;;;5060122;28;20437;-89
2022/10/28 03:27:29;;;;;;;18.13;5.57;;;12.80;99.90;;;;;;5064661;28;20024;-88
2022/10/28 03:29:55;;;;;;;19.75;6.43;;;12.80;99.90;;;;;;5060794;28;20102;-89
2022/10/28 03:32:21;;;;;;;18.10;6.68;;;12.80;99.90;;;;;;5082166;28;20093;-88
2022/10/28 03:34:46;;;;;;;22.15;7.35;;;12.80;99.90;;;;;;5058122;28;20089;-89
2022/10/28 03:37:12;;;;;;;14.00;6.03;;;12.80;99.90;;;;;;5063309;28;20024;-88
2022/10/28 03:39:38;;;;;;;17.73;6.53;;;12.80;99.90;;;;;;5066177;28;20066;-89
2022/10/28 03:42:04;;;;;;;23.27;6.57;;;12.80;99.90;;;;;;5063370;28;20463;-89
2022/10/28 03:44:30;;;;;;;13.77;6.75;;;12.90;99.90;;;;;;5085285;28;20054;-89
2022/10/28 03:46:55;;;;;;;14.65;5.65;;;12.90;99.90;;;;;;5081301;28;20499;-88
2022/10/28 03:50:11;;;;;;;16.95;6.70;;;12.90;99.90;;;;;;5085706;28;20023;-89
2022/10/28 03:52:36;;;;;;;26.20;6.88;;;12.90;99.90;;;;;;5057982;28;20029;-89
2022/10/28 03:55:02;;;;;;;20.10;7.75;;;13.00;99.90;;;;;;5086190;28;20559;-89
2022/10/28 03:57:59;;;;;;;15.75;6.53;;;13.20;99.90;;;;;;5085565;28;20032;-88
2022/10/28 04:00:24;;;;;;;18.08;7.78;;;13.30;99.90;;;;;;5065597;28;20032;-88
2022/10/28 04:02:51;;;;;;;19.83;5.93;;;13.30;99.90;;;;;;5076157;28;20539;-88
2022/10/28 04:05:19;;;;;;;19.38;6.30;;;13.30;99.90;;;;;;5088130;28;20034;-89
2022/10/28 04:07:56;;;;;;;15.52;6.75;;;13.30;99.90;;;;;;5075765;28;20028;-88
2022/10/28 04:10:22;;;;;;;21.75;6.65;;;13.30;99.90;;;;;;5067697;28;20028;-89
2022/10/28 04:12:48;;;;;;;24.35;6.28;;;13.20;99.90;;;;;;5080535;28;20028;-89
2022/10/28 04:15:13;;;;;;;29.02;6.20;;;13.20;99.90;;;;;;5087693;28;20107;-89
2022/10/28 04:17:39;;;;;;;13.73;5.93;;;13.20;99.90;;;;;;5080452;28;20059;-89
2022/10/28 04:20:05;;;;;;;22.00;5.70;;;13.10;99.90;;;;;;5077776;28;20024;-88
2022/10/28 04:22:31;;;;;;;12.27;5.65;;;13.10;99.90;;;;;;5066333;28;20032;-89
2022/10/28 04:24:57;;;;;;;11.65;5.70;;;13.20;99.90;;;;;;5061420;28;20421;-88
2022/10/28 04:27:44;;;;;;;22.88;8.00;;;13.30;99.90;;;;;;5067337;28;20020;-88
2022/10/28 04:31:02;;;;;;;11.80;6.72;;;13.40;99.90;;;;;;5071034;28;20028;-89
2022/10/28 04:34:21;;;;;;;17.55;5.95;;;13.40;99.90;;;;;;5058446;28;20136;-88
2022/10/28 04:36:47;;;;;;;13.45;6.65;;;13.40;99.90;;;;;;5066178;28;20070;-88
2022/10/28 04:39:12;;;;;;;19.15;8.52;;;13.30;99.90;;;;;;5083534;28;20510;-88
2022/10/28 04:41:38;;;;;;;18.55;6.03;;;13.20;99.90;;;;;;5050255;28;20033;-88
2022/10/28 04:44:04;;;;;;;16.48;7.32;;;13.20;99.90;;;;;;5075753;28;20021;-88
2022/10/28 04:46:29;;;;;;;18.58;7.20;;;13.00;99.90;;;;;;5072849;28;20021;-88
2022/10/28 04:48:55;;;;;;;15.18;6.10;;;13.00;99.90;;;;;;5080494;28;20552;-87
2022/10/28 04:51:21;;;;;;;16.92;6.60;;;13.00;99.90;;;;;;5084718;28;20028;-88
2022/10/28 04:53:47;;;;;;;19.63;7.53;;;12.90;99.90;;;;;;5092081;28;20078;-89
2022/10/28 04:56:12;;;;;;;15.40;6.18;;;12.90;99.90;;;;;;5066823;28;20024;-88
2022/10/28 04:58:38;;;;;;;17.73;7.50;;;12.80;99.90;;;;;;5084933;28;20029;-88
2022/10/28 05:01:09;;;;;;;26.27;8.75;;;12.70;99.90;;;;;;5087055;28;20473;-89
2022/10/28 05:03:35;;;;;;;22.55;7.22;;;12.60;99.90;;;;;;5071304;28;20035;-89
2022/10/28 05:06:01;;;;;;;19.00;6.60;;;12.50;99.90;;;;;;5057440;28;20129;-89
2022/10/28 05:08:27;;;;;;;19.58;6.43;;;12.50;99.90;;;;;;5054581;28;20431;-88
2022/10/28 05:10:53;;;;;;;14.60;6.97;;;12.60;99.90;;;;;;5083761;28;20029;-88
2022/10/28 05:13:18;;;;;;;18.52;9.02;;;12.60;99.90;;;;;;5057185;28;20032;-88
2022/10/28 05:15:46;;;;;;;20.42;7.03;;;12.50;99.90;;;;;;5066247;28;20037;-89
2022/10/28 05:18:12;;;;;;;22.80;7.43;;;12.50;99.90;;;;;;5062374;28;20027;-89
2022/10/28 05:20:38;;;;;;;14.55;7.10;;;12.50;99.90;;;;;;5062410;28;20495;-88
2022/10/28 05:23:03;;;;;;;26.70;7.40;;;12.60;99.90;;;;;;5079307;28;20421;-88
2022/10/28 05:25:51;;;;;;;15.38;6.57;;;12.60;99.90;;;;;;5065436;28;20398;-88
2022/10/28 05:28:17;;;;;;;22.73;6.53;;;12.60;99.90;;;;;;5060720;28;20032;-88
2022/10/28 05:30:44;;;;;;;26.25;7.03;;;12.60;99.90;;;;;;5055810;28;20526;-88
2022/10/28 05:33:10;;;;;;;17.55;7.63;;;12.60;99.90;;;;;;5063432;28;20028;-88
2022/10/28 05:35:36;;;;;;;19.23;6.93;;;12.60;99.90;;;;;;5072563;28;20384;-88
2022/10/28 05:38:02;;;;;;;15.20;6.47;;;12.50;99.90;;;;;;5073224;28;20024;-88
2022/10/28 05:40:28;;;;;;;18.10;6.43;;;12.40;99.90;;;;;;5079399;28;20071;-88
2022/10/28 05:42:54;;;;;;;20.27;6.30;;;12.50;99.90;;;;;;5080322;28;20025;-88
2022/10/28 05:45:20;;;;;;;19.65;6.40;;;12.50;99.90;;;;;;5082632;28;20024;-89
2022/10/28 05:47:47;;;;;;;17.60;6.32;;;12.50;99.90;;;;;;5083836;28;20107;-88
2022/10/28 05:50:14;;;;;;;19.02;6.95;;;12.50;99.90;;;;;;5070647;28;20071;-88
2022/10/28 05:52:48;;;;;;;20.02;7.13;;;12.50;99.90;;;;;;5084701;28;20056;-87
2022/10/28 05:55:14;;;;;;;16.55;6.57;;;12.50;99.90;;;;;;5054467;28;20102;-88
2022/10/28 05:57:40;;;;;;;17.42;5.97;;;12.50;99.90;;;;;;5072446;28;20032;-88
2022/10/28 06:00:06;;;;;;;28.80;6.65;;;12.50;99.90;;;;;;5078080;28;20119;-88
2022/10/28 06:02:38;;;;;;;20.63;5.97;;;12.60;99.90;;;;;;5091620;28;20024;-89
2022/10/28 06:05:04;;;;;;;19.80;5.35;;;12.70;99.90;;;;;;5062838;28;20039;-89
2022/10/28 06:07:29;;;;;;;20.38;5.43;;;12.70;99.90;;;;;;5072752;28;20059;-89
2022/10/28 06:09:55;;;;;;;12.73;4.93;;;12.70;99.90;;;;;;5071530;28;20085;-89
2022/10/28 06:12:21;;;;;;;12.88;4.75;;;12.80;99.90;;;;;;5069131;28;20025;-89
2022/10/28 06:14:46;;;;;;;17.73;5.93;;;12.80;99.90;;;;;;5071309;28;20024;-89
2022/10/28 06:17:12;;;;;;;18.95;6.13;;;12.70;99.90;;;;;;5074141;28;20029;-90
2022/10/28 06:19:37;;;;;;;17.30;6.80;;;12.60;99.90;;;;;;5088380;28;20024;-89
2022/10/28 06:22:03;;;;;;;18.90;7.93;;;12.50;99.90;;;;;;5063526;28;20127;-89
2022/10/28 06:24:29;;;;;;;19.98;7.63;;;12.30;99.90;;;;;;5070956;28;20025;-90
2022/10/28 06:26:54;;;;;;;18.92;6.28;;;12.30;99.90;;;;;;5086538;28;20029;-88
2022/10/28 06:29:20;;;;;;;18.73;6.78;;;12.20;99.90;;;;;;5059492;28;20068;-89
2022/10/28 06:31:46;;;;;;;17.25;5.95;;;12.30;99.90;;;;;;5087986;28;20039;-88
2022/10/28 06:34:12;;;;;;;21.30;6.57;;;12.30;99.90;;;;;;5078203;28;20032;-89
2022/10/28 06:37:16;;;;;;;13.88;6.00;;;12.40;99.90;;;;;;5073651;28;20036;-89
2022/10/28 06:39:43;;;;;;;19.52;5.85;;;12.50;99.90;;;;;;5058727;28;20537;-89
2022/10/28 06:42:08;;;;;;;17.05;6.05;;;12.50;99.90;;;;;;5060580;28;20070;-90
2022/10/28 06:44:34;;;;;;;18.02;5.75;;;12.60;99.90;;;;;;5081472;28;20476;-89
2022/10/28 06:47:00;;;;;;;15.15;5.30;;;12.70;99.90;;;;;;5077938;28;20032;-89
2022/10/28 06:49:27;;;;;;;25.70;5.25;;;13.00;99.90;;;;;;5064220;28;20380;-88
2022/10/28 06:51:54;;;;;;;16.40;5.65;;;13.20;99.90;;;;;;5067159;28;20020;-89
2022/10/28 06:54:19;;;;;;;14.02;4.88;;;13.30;99.90;;;;;;5054294;28;20028;-89
2022/10/28 06:56:46;;;;;;;14.80;5.00;;;13.50;99.90;;;;;;5089310;28;20032;-89
2022/10/28 06:59:12;;;;;;;15.27;4.45;;;13.70;99.90;;;;;;5077793;28;20031;-89
2022/10/28 07:01:37;;;;;;;15.73;4.68;;;13.80;99.90;;;;;;5057564;28;20029;-89
2022/10/28 07:04:03;;;;;;;11.98;4.68;;;13.90;99.90;;;;;;5068482;28;20029;-89
2022/10/28 07:06:29;;;;;;;11.85;4.57;;;14.10;99.90;;;;;;5069914;28;20029;-89
2022/10/28 07:08:54;;;;;;;16.40;4.32;;;14.20;99.90;;;;;;5063648;28;20035;-89
2022/10/28 07:11:20;;;;;;;16.60;4.20;;;14.40;99.90;;;;;;5054768;28;20031;-89
2022/10/28 07:13:46;;;;;;;8.75;4.00;;;14.60;99.90;;;;;;5068803;28;20036;-89
2022/10/28 07:16:52;;;;;;;14.57;3.95;;;14.70;99.90;;;;;;5053838;28;20028;-89
2022/10/28 07:19:18;;;;;;;16.58;4.13;;;14.90;99.90;;;;;;5075696;28;20021;-88
2022/10/28 07:21:45;;;;;;;12.60;4.30;;;15.00;99.90;;;;;;5075074;28;20032;-89
2022/10/28 07:24:11;;;;;;;15.05;4.22;;;15.00;99.90;;;;;;5058678;28;20024;-89
2022/10/28 07:26:37;;;;;;;13.60;4.43;;;15.00;99.90;;;;;;5057361;28;20052;-89
2022/10/28 07:29:02;;;;;;;17.23;3.97;;;14.90;99.90;;;;;;5058220;28;20482;-89
2022/10/28 07:31:30;;;;;;;11.38;3.63;;;14.90;99.90;;;;;;5049170;28;20488;-89
2022/10/28 07:33:56;;;;;;;14.55;3.83;;;15.00;99.90;;;;;;5054363;28;20028;-89
2022/10/28 07:36:21;;;;;;;10.77;3.92;;;15.20;99.90;;;;;;5059354;28;20044;-89
2022/10/28 07:38:50;;;;;;;18.38;4.22;;;15.40;99.90;;;;;;5053858;28;20036;-89
2022/10/28 07:41:16;;;;;;;17.08;5.10;;;15.40;99.90;;;;;;5046797;28;20500;-88
2022/10/28 07:43:41;;;;;;;13.90;4.43;;;15.50;99.90;;;;;;5066322;28;20035;-89
2022/10/28 07:46:08;;;;;;;21.15;4.00;;;15.50;99.90;;;;;;5058554;28;20092;-89
2022/10/28 07:48:37;;;;;;;12.82;4.72;;;15.60;99.90;;;;;;5049655;28;20043;-88
2022/10/28 07:51:05;;;;;;;14.57;3.95;;;15.60;99.90;;;;;;5074912;28;20107;-89
2022/10/28 07:53:31;;;;;;;14.25;4.30;;;15.60;99.90;;;;;;5074374;28;20103;-89
2022/10/28 07:55:59;;;;;;;16.10;4.43;;;15.60;99.90;;;;;;5089168;28;20028;-89
2022/10/28 07:58:24;;;;;;;11.32;3.85;;;15.60;99.90;;;;;;5047556;28;20027;-89
2022/10/28 08:00:50;;;;;;;23.48;4.00;;;15.60;99.90;;;;;;5055379;28;20029;-89
2022/10/28 08:03:16;;;;;;;14.23;5.00;;;15.70;99.90;;;;;;5045895;28;20025;-90
2022/10/28 08:05:42;;;;;;;15.95;4.05;;;15.70;99.90;;;;;;5067387;28;20037;-89
2022/10/28 08:08:09;;;;;;;23.48;4.90;;;15.80;99.90;;;;;;5068965;28;20131;-88
2022/10/28 08:10:34;;;;;;;18.98;4.93;;;15.90;99.90;;;;;;5050487;28;20061;-89
2022/10/28 08:13:00;;;;;;;18.10;4.93;;;16.00;99.90;;;;;;5071079;28;20526;-89
2022/10/28 08:15:27;;;;;;;12.38;4.60;;;16.10;99.90;;;;;;5049305;28;20106;-89
2022/10/28 08:17:53;;;;;;;16.88;4.22;;;16.20;99.90;;;;;;5071657;28;20047;-89
2022/10/28 08:20:19;;;;;;;11.85;3.65;;;16.30;99.90;;;;;;5068520;28;20024;-88
2022/10/28 08:22:45;;;;;;;9.90;3.88;;;16.40;99.90;;;;;;5066211;28;20502;-88
2022/10/28 08:25:11;;;;;;;14.93;3.88;;;16.40;99.90;;;;;;5055133;28;20048;-89
2022/10/28 08:27:36;;;;;;;14.30;3.33;;;16.30;99.90;;;;;;5045057;28;20028;-89
2022/10/28 08:30:02;;;;;;;23.75;4.80;;;16.30;99.90;;;;;;5055052;28;20123;-89
2022/10/28 08:32:28;;;;;;;29.30;5.25;;;16.30;99.90;;;;;;5053501;28;20479;-89
2022/10/28 08:34:54;;;;;;;15.63;4.25;;;16.40;99.90;;;;;;5051915;28;20032;-87
2022/10/28 08:37:19;;;;;;;27.17;4.65;;;16.50;99.90;;;;;;5052326;28;19920;-88
2022/10/28 08:39:45;;;;;;;17.95;4.20;;;16.70;99.90;;;;;;5065426;28;20036;-88
2022/10/28 08:42:34;;;;;;;15.43;5.18;;;16.90;99.90;;;;;;5054069;28;20033;-88
2022/10/28 08:45:56;;;;;;;14.13;4.05;;;17.00;99.90;;;;;;5066282;28;20476;-88
2022/10/28 08:48:30;;;;;;;12.77;3.65;;;17.20;99.90;;;;;;5045151;28;20039;-89
2022/10/28 08:51:13;;;;;;;14.38;3.80;;;17.50;99.90;;;;;;5063745;28;20051;-88
2022/10/28 08:53:54;;;;;;;20.45;5.50;;;17.60;99.90;;;;;;5053854;28;20033;-88
2022/10/28 08:56:45;;;;;;;22.63;4.28;;;17.70;99.90;;;;;;5046586;28;20036;-88
2022/10/28 08:59:34;;;;;;;12.30;3.60;;;17.80;99.90;;;;;;5066054;28;20701;-89
2022/10/28 09:02:11;;;;;;;8.65;3.47;;;17.90;99.90;;;;;;5054144;28;20278;-89
2022/10/28 09:04:45;;;;;;;18.60;3.67;;;18.00;99.90;;;;;;5069575;28;20029;-89
2022/10/28 09:07:21;;;;;;;16.15;3.78;;;18.10;99.90;;;;;;5049291;28;20037;-88
2022/10/28 09:09:49;;;;;;;13.25;3.92;;;18.00;99.90;;;;;;5071498;28;20041;-89
2022/10/28 09:12:30;;;;;;;11.63;3.33;;;18.00;99.90;;;;;;5066227;28;20131;-88
2022/10/28 09:15:26;;;;;;;22.65;4.38;;;18.00;99.90;;;;;;5068575;28;20029;-88
2022/10/28 09:18:03;;;;;;;15.35;3.47;;;18.10;99.90;;;;;;5071861;28;20048;-88
2022/10/28 09:20:41;;;;;;;15.60;4.07;;;18.00;99.90;;;;;;5069777;28;20035;-88
2022/10/28 09:23:54;;;;;;;14.52;3.45;;;18.10;99.90;;;;;;5050291;28;20025;-88
2022/10/28 09:26:26;;;;;;;16.02;3.83;;;18.20;99.90;;;;;;5028409;28;20036;-88
2022/10/28 09:29:17;;;;;;;30.73;4.55;;;18.20;99.90;;;;;;5059515;28;20040;-88
2022/10/28 09:32:08;;;;;;;11.60;3.47;;;18.30;99.90;;;;;;5062479;28;20111;-88
2022/10/28 09:34:45;;;;;;;11.80;3.83;;;18.20;99.90;;;;;;5043636;28;20079;-88
2022/10/28 09:37:34;;;;;;;11.25;3.17;;;18.20;99.90;;;;;;5059657;28;20325;-89
2022/10/28 09:40:06;;;;;;;7.90;3.90;;;18.40;99.90;;;;;;5056528;28;20031;-88
2022/10/28 09:42:45;;;;;;;11.18;4.38;;;18.60;99.90;;;;;;5069649;28;20533;-89
2022/10/28 09:45:24;;;;;;;15.73;4.50;;;18.90;99.90;;;;;;5046083;28;20116;-89
2022/10/28 09:47:57;;;;;;;19.27;5.20;;;19.10;99.90;;;;;;5054734;28;20051;-88
2022/10/28 09:50:38;;;;;;;18.05;4.72;;;18.90;99.90;;;;;;5062017;28;20024;-88
2022/10/28 09:53:23;;;;;;;;;;;18.20;99.90;;;;;;5089019;28;20028;-89
2022/10/28 09:55:49;;;;;;;12.07;3.88;;;18.20;99.90;;;;;;5059388;28;19942;-88
2022/10/28 09:58:17;;;;;;;21.10;4.82;;;18.30;99.90;;;;;;5072817;28;20017;-88
2022/10/28 10:00:42;;;;;;;15.45;4.10;;;18.20;99.90;;;;;;5049051;28;20522;-89
2022/10/28 10:03:08;;;;;;;16.00;3.45;;;18.30;99.90;;;;;;5050150;28;20025;-89
2022/10/28 10:05:41;;;;;;;17.25;4.20;;;18.50;99.90;;;;;;5066099;28;20421;-88
2022/10/28 10:08:12;;;;;;;6.38;4.13;;;18.50;99.90;;;;;;5075596;28;20665;-88
2022/10/28 10:10:49;;;;;;;11.20;3.80;;;18.50;99.90;;;;;;5064368;28;20060;-89
2022/10/28 10:13:18;;;;;;;21.48;3.83;;;18.30;99.90;;;;;;5044143;28;20032;-89
2022/10/28 10:15:49;;;;;;;14.55;4.15;;;18.20;99.90;;;;;;5052516;28;20056;-89
2022/10/28 10:18:22;;;;;;;12.27;3.58;;;18.10;99.90;;;;;;5067201;28;20115;-89
2022/10/28 10:20:47;;;;;;;12.20;3.83;;;18.10;99.90;;;;;;5072431;28;20050;-89
2022/10/28 10:23:22;;;;;;;14.52;3.50;;;18.20;99.90;;;;;;5055784;28;20033;-89
2022/10/28 10:25:54;;;;;;;12.68;3.05;;;18.10;99.90;;;;;;5053363;28;20376;-89
2022/10/28 10:28:20;;;;;;;15.43;3.50;;;17.90;99.90;;;;;;5061232;28;20025;-90
2022/10/28 10:30:52;;;;;;;10.40;3.30;;;18.20;99.90;;;;;;5070455;28;20025;-89
2022/10/28 10:33:24;;;;;;;9.70;3.28;;;18.50;99.90;;;;;;5058132;28;20234;-89
2022/10/28 10:35:59;;;;;;;14.23;3.58;;;18.70;99.90;;;;;;5082813;28;20024;-89
2022/10/28 10:38:27;;;;;;;16.95;4.97;;;18.80;99.90;;;;;;5061228;28;20610;-89
2022/10/28 10:40:52;;;;;;;18.92;3.42;;;18.60;99.90;;;;;;5076403;28;20023;-89
2022/10/28 10:43:22;;;;;;;21.02;3.80;;;18.50;99.90;;;;;;5067204;28;20025;-90
2022/10/28 10:46:41;;;;;;;9.35;2.92;;;18.30;99.90;;;;;;5077171;28;20122;-89
2022/10/28 10:49:13;;;;;;;12.98;4.30;;;18.30;99.90;;;;;;5081834;28;20089;-90
2022/10/28 10:51:50;;;;;;;38.35;5.38;;;18.50;99.90;;;;;;5061371;28;20387;-87
2022/10/28 10:54:17;;;;;;;13.43;3.90;;;18.60;99.90;;;;;;5076104;28;20115;-88
2022/10/28 10:56:44;;;;;;;17.13;4.40;;;18.70;99.90;;;;;;5072066;28;20448;-89
2022/10/28 10:59:36;;;;;;;19.45;4.07;;;18.90;99.90;;;;;;5061873;28;20032;-89
2022/10/28 11:02:18;;;;;;;20.50;4.60;;;19.20;99.90;;;;;;5053624;28;20391;-89
2022/10/28 11:04:50;;;;;;;10.70;4.35;;;19.40;99.90;;;;;;5060275;28;20036;-89
2022/10/28 11:07:16;;;;;;;10.70;3.63;;;19.40;99.90;;;;;;5077028;28;20032;-90
2022/10/28 11:09:47;;;;;;;22.05;3.78;;;19.30;99.90;;;;;;5077591;28;20116;-90
2022/10/28 11:12:24;;;;;;;16.80;5.63;;;19.30;99.90;;;;;;5077668;28;20038;-89
2022/10/28 11:15:16;;;;;;;22.98;3.85;;;19.30;99.90;;;;;;5080160;28;20048;-89
2022/10/28 11:17:52;;;;;;;;;;;19.30;99.90;;;;;;5060209;28;20048;-89
2022/10/28 11:20:39;;;;;;;14.25;3.63;;;19.30;99.90;;;;;;5077408;28;19916;-89
2022/10/28 11:23:17;;;;;;;11.73;3.92;;;19.50;99.90;;;;;;5057556;28;20029;-89
2022/10/28 11:29:29;;;;;;;16.23;3.67;;;20.00;99.90;;;;;;5063185;28;20028;-89
2022/10/28 11:32:10;;;;;;;13.40;4.00;;;20.60;99.90;;;;;;5079937;28;20028;-88
2022/10/28 11:34:48;;;;;;;15.82;4.43;;;21.30;99.90;;;;;;5060534;28;20032;-90
2022/10/28 11:37:19;;;;;;;11.93;3.85;;;21.50;99.90;;;;;;5064973;28;20035;-89
2022/10/28 11:40:36;;;;;;;18.45;3.80;;;21.50;99.90;;;;;;5059416;28;20077;-89
2022/10/28 11:43:39;;;;;;;10.98;3.38;;;21.70;99.90;;;;;;5057446;28;20051;-89
2022/10/28 11:46:36;;;;;;;10.05;3.72;;;21.80;99.90;;;;;;5060978;28;20028;-90
2022/10/28 11:49:29;;;;;;;6.88;3.40;;;21.90;99.90;;;;;;5056437;28;20032;-89
2022/10/28 11:52:04;;;;;;;13.25;3.50;;;22.00;99.90;;;;;;5057846;28;20111;-90
2022/10/28 11:54:48;;;;;;;10.88;3.10;;;21.60;99.90;;;;;;5061518;28;20627;-89
2022/10/28 11:57:18;;;;;;;10.50;3.25;;;21.40;99.90;;;;;;5065608;28;20025;-89
2022/10/28 12:00:08;;;;;;;11.75;3.22;;;21.20;99.90;;;;;;5057253;28;20028;-89
2022/10/28 12:02:55;;;;;;;21.27;3.63;;;21.10;99.90;;;;;;5061832;28;20064;-89
2022/10/28 12:05:34;;;;;;;22.90;5.65;;;21.00;99.90;;;;;;5042803;28;20037;-88
2022/10/28 12:08:45;;;;;;;9.30;3.78;;;20.70;99.90;;;;;;5074812;28;20029;-91
2022/10/28 12:11:57;;;;;;;14.77;3.78;;;20.40;99.90;;;;;;5062360;28;20481;-90
2022/10/28 12:14:22;;;;;;;14.07;3.40;;;20.30;99.90;;;;;;5081571;28;20083;-89
2022/10/28 12:17:03;;;;;;;21.85;5.00;;;20.20;99.90;;;;;;5068999;28;20056;-91
2022/10/28 12:19:37;;;;;;;20.30;3.75;;;20.50;99.90;;;;;;5070198;28;20104;-89
2022/10/28 12:22:16;;;;;;;16.90;3.55;;;20.80;99.90;;;;;;5084655;28;20024;-89
2022/10/28 12:24:45;;;;;;;12.52;3.40;;;21.00;99.90;;;;;;5058532;28;20116;-89
2022/10/28 12:27:17;;;;;;;12.15;3.15;;;21.30;99.90;;;;;;5073928;28;20028;-90
2022/10/28 12:29:47;;;;;;;14.80;3.70;;;22.00;99.90;;;;;;5067753;28;20033;-90
2022/10/28 12:32:21;;;;;;;12.52;2.80;;;22.50;99.90;;;;;;5072913;28;20104;-89
2022/10/28 12:35:05;;;;;;;15.75;3.53;;;22.30;99.90;;;;;;5073741;28;20037;-90
2022/10/28 12:37:40;;;;;;;17.02;3.72;;;22.00;99.90;;;;;;5063407;28;20037;-90
2022/10/28 12:40:26;;;;;;;21.30;4.07;;;21.90;99.90;;;;;;5057136;28;20384;-90
2022/10/28 12:43:49;;;;;;;17.08;3.83;;;22.00;99.90;;;;;;5056545;28;20039;-90
2022/10/28 12:46:29;;;;;;;17.58;3.53;;;21.80;99.90;;;;;;5023044;28;20040;-89
2022/10/28 12:48:59;;;;;;;19.70;3.45;;;21.60;99.90;;;;;;5052413;28;20044;-89
2022/10/28 12:51:28;;;;;;;17.00;3.08;;;21.40;99.90;;;;;;5056899;28;20037;-90
2022/10/28 12:54:15;;;;;;;19.65;4.15;;;21.20;99.90;;;;;;5072305;28;20349;-89
2022/10/28 12:56:51;;;;;;;11.77;2.75;;;20.90;99.90;;;;;;5071961;28;20033;-90
2022/10/28 12:59:38;;;;;;;20.70;3.90;;;20.70;99.90;;;;;;5057619;28;20027;-89
2022/10/28 13:02:15;;;;;;;11.35;3.63;;;20.70;99.90;;;;;;5050467;28;20149;-89
2022/10/28 13:04:41;;;;;;;13.88;3.33;;;20.70;99.90;;;;;;5050768;28;20471;-89
2022/10/28 13:07:25;;;;;;;17.67;3.30;;;20.70;99.90;;;;;;5057349;28;20074;-89
2022/10/28 13:10:02;;;;;;;16.08;3.20;;;20.70;99.90;;;;;;5053824;28;20353;-91
2022/10/28 13:12:48;;;;;;;16.63;3.22;;;20.70;99.90;;;;;;5070033;28;20166;-91
2022/10/28 13:15:32;;;;;;;17.45;2.83;;;20.80;99.90;;;;;;5061888;28;20365;-90
2022/10/28 13:18:36;;;;;;;15.25;3.38;;;20.80;99.90;;;;;;5067501;28;20048;-90
2022/10/28 13:21:30;;;;;;;13.55;3.42;;;20.70;99.90;;;;;;5060683;28;20123;-91
2022/10/28 13:24:14;;;;;;;12.25;3.10;;;20.70;99.90;;;;;;5057375;28;20025;-90